sensor_id;sensor_type;location;lat;lon;timestamp;pressure;altitude;pressure_sealevel;temperature
15845;BMP180;50807;52.436;13.346;2024-02-16T00:00:16;101117.00;;;14.90
15845;BMP180;50807;52.436;13.346;2024-02-16T00:00:47;101117.00;;;14.90
15845;BMP180;50807;52.436;13.346;2024-02-16T00:01:18;101119.00;;;14.90
15845;BMP180;50807;52.436;13.346;2024-02-16T00:01:50;101118.00;;;14.90
15845;BMP180;50807;52.436;13.346;2024-02-16T00:02:20;101111.00;;;14.90
15845;BMP180;50807;52.436;13.346;2024-02-16T00:02:53;101123.00;;;14.90
15845;BMP180;50807;52.436;13.346;2024-02-16T00:03:23;101124.00;;;14.90
15845;BMP180;50807;52.436;13.346;2024-02-16T00:03:55;101112.00;;;14.90
15845;BMP180;50807;52.436;13.346;2024-02-16T00:04:27;101120.00;;;14.90
15845;BMP180;50807;52.436;13.346;2024-02-16T00:04:58;101120.00;;;14.90
15845;BMP180;50807;52.436;13.346;2024-02-16T00:05:29;101120.00;;;14.90
15845;BMP180;50807;52.436;13.346;2024-02-16T00:06:00;101114.00;;;14.90
15845;BMP180;50807;52.436;13.346;2024-02-16T00:06:31;101120.00;;;14.90
15845;BMP180;50807;52.436;13.346;2024-02-16T00:07:02;101109.00;;;14.90
15845;BMP180;50807;52.436;13.346;2024-02-16T00:07:33;101114.00;;;14.90
15845;BMP180;50807;52.436;13.346;2024-02-16T00:08:04;101112.00;;;14.90
15845;BMP180;50807;52.436;13.346;2024-02-16T00:08:36;101103.00;;;14.90
15845;BMP180;50807;52.436;13.346;2024-02-16T00:09:09;101112.00;;;14.80
15845;BMP180;50807;52.436;13.346;2024-02-16T00:09:40;101109.00;;;14.80
15845;BMP180;50807;52.436;13.346;2024-02-16T00:10:11;101107.00;;;14.80
15845;BMP180;50807;52.436;13.346;2024-02-16T00:10:43;101106.00;;;14.80
15845;BMP180;50807;52.436;13.346;2024-02-16T00:11:14;101117.00;;;14.80
15845;BMP180;50807;52.436;13.346;2024-02-16T00:11:45;101104.00;;;14.80
15845;BMP180;50807;52.436;13.346;2024-02-16T00:12:17;101106.00;;;14.80
15845;BMP180;50807;52.436;13.346;2024-02-16T00:12:48;101108.00;;;14.80
15845;BMP180;50807;52.436;13.346;2024-02-16T00:13:20;101114.00;;;14.80
15845;BMP180;50807;52.436;13.346;2024-02-16T00:13:50;101112.00;;;14.80
15845;BMP180;50807;52.436;13.346;2024-02-16T00:14:21;101111.00;;;14.80
15845;BMP180;50807;52.436;13.346;2024-02-16T00:14:52;101111.00;;;14.80
15845;BMP180;50807;52.436;13.346;2024-02-16T00:15:24;101116.00;;;14.80
15845;BMP180;50807;52.436;13.346;2024-02-16T00:15:54;101112.00;;;14.80
15845;BMP180;50807;52.436;13.346;2024-02-16T00:16:25;101101.00;;;14.80
15845;BMP180;50807;52.436;13.346;2024-02-16T00:16:56;101115.00;;;14.80
15845;BMP180;50807;52.436;13.346;2024-02-16T00:17:28;101117.00;;;14.80
15845;BMP180;50807;52.436;13.346;2024-02-16T00:17:59;101118.00;;;14.80
15845;BMP180;50807;52.436;13.346;2024-02-16T00:18:30;101114.00;;;14.80
15845;BMP180;50807;52.436;13.346;2024-02-16T00:19:00;101118.00;;;14.80
15845;BMP180;50807;52.436;13.346;2024-02-16T00:19:32;101118.00;;;14.80
15845;BMP180;50807;52.436;13.346;2024-02-16T00:20:06;101114.00;;;14.80
15845;BMP180;50807;52.436;13.346;2024-02-16T00:20:37;101108.00;;;14.70
15845;BMP180;50807;52.436;13.346;2024-02-16T00:21:08;101115.00;;;14.80
15845;BMP180;50807;52.436;13.346;2024-02-16T00:21:39;101115.00;;;14.80
15845;BMP180;50807;52.436;13.346;2024-02-16T00:22:12;101110.00;;;14.70
15845;BMP180;50807;52.436;13.346;2024-02-16T00:22:44;101115.00;;;14.80
15845;BMP180;50807;52.436;13.346;2024-02-16T00:23:15;101115.00;;;14.70
15845;BMP180;50807;52.436;13.346;2024-02-16T00:23:45;101108.00;;;14.70
15845;BMP180;50807;52.436;13.346;2024-02-16T00:24:17;101115.00;;;14.70
15845;BMP180;50807;52.436;13.346;2024-02-16T00:24:49;101108.00;;;14.70
15845;BMP180;50807;52.436;13.346;2024-02-16T00:25:20;101111.00;;;14.70
15845;BMP180;50807;52.436;13.346;2024-02-16T00:25:50;101116.00;;;14.70
15845;BMP180;50807;52.436;13.346;2024-02-16T00:26:21;101118.00;;;14.70
15845;BMP180;50807;52.436;13.346;2024-02-16T00:26:52;101115.00;;;14.70
15845;BMP180;50807;52.436;13.346;2024-02-16T00:27:24;101115.00;;;14.70
15845;BMP180;50807;52.436;13.346;2024-02-16T00:27:54;101115.00;;;14.70
15845;BMP180;50807;52.436;13.346;2024-02-16T00:28:25;101115.00;;;14.70
15845;BMP180;50807;52.436;13.346;2024-02-16T00:28:56;101112.00;;;14.70
15845;BMP180;50807;52.436;13.346;2024-02-16T00:29:28;101116.00;;;14.70
15845;BMP180;50807;52.436;13.346;2024-02-16T00:29:59;101112.00;;;14.70
15845;BMP180;50807;52.436;13.346;2024-02-16T00:30:30;101113.00;;;14.70
15845;BMP180;50807;52.436;13.346;2024-02-16T00:31:01;101118.00;;;14.70
15845;BMP180;50807;52.436;13.346;2024-02-16T00:31:32;101113.00;;;14.70
15845;BMP180;50807;52.436;13.346;2024-02-16T00:32:03;101114.00;;;14.70
15845;BMP180;50807;52.436;13.346;2024-02-16T00:32:34;101105.00;;;14.70
15845;BMP180;50807;52.436;13.346;2024-02-16T00:33:07;101112.00;;;14.70
15845;BMP180;50807;52.436;13.346;2024-02-16T00:33:38;101113.00;;;14.70
15845;BMP180;50807;52.436;13.346;2024-02-16T00:34:08;101115.00;;;14.70
15845;BMP180;50807;52.436;13.346;2024-02-16T00:34:40;101108.00;;;14.70
15845;BMP180;50807;52.436;13.346;2024-02-16T00:35:12;101112.00;;;14.70
15845;BMP180;50807;52.436;13.346;2024-02-16T00:35:43;101112.00;;;14.70
15845;BMP180;50807;52.436;13.346;2024-02-16T00:36:14;101112.00;;;14.70
15845;BMP180;50807;52.436;13.346;2024-02-16T00:36:44;101113.00;;;14.70
15845;BMP180;50807;52.436;13.346;2024-02-16T00:37:16;101114.00;;;14.70
15845;BMP180;50807;52.436;13.346;2024-02-16T00:37:47;101114.00;;;14.70
15845;BMP180;50807;52.436;13.346;2024-02-16T00:38:17;101105.00;;;14.70
15845;BMP180;50807;52.436;13.346;2024-02-16T00:38:48;101108.00;;;14.70
15845;BMP180;50807;52.436;13.346;2024-02-16T00:39:20;101108.00;;;14.70
15845;BMP180;50807;52.436;13.346;2024-02-16T00:39:52;101104.00;;;14.60
15845;BMP180;50807;52.436;13.346;2024-02-16T00:40:24;101108.00;;;14.70
15845;BMP180;50807;52.436;13.346;2024-02-16T00:40:56;101106.00;;;14.60
15845;BMP180;50807;52.436;13.346;2024-02-16T00:41:27;101106.00;;;14.60
15845;BMP180;50807;52.436;13.346;2024-02-16T00:41:58;101102.00;;;14.70
15845;BMP180;50807;52.436;13.346;2024-02-16T00:42:29;101104.00;;;14.60
15845;BMP180;50807;52.436;13.346;2024-02-16T00:43:01;101096.00;;;14.60
15845;BMP180;50807;52.436;13.346;2024-02-16T00:43:33;101102.00;;;14.60
15845;BMP180;50807;52.436;13.346;2024-02-16T00:44:04;101093.00;;;14.70
15845;BMP180;50807;52.436;13.346;2024-02-16T00:44:35;101102.00;;;14.60
15845;BMP180;50807;52.436;13.346;2024-02-16T00:45:08;101094.00;;;14.60
15845;BMP180;50807;52.436;13.346;2024-02-16T00:45:39;101101.00;;;14.60
15845;BMP180;50807;52.436;13.346;2024-02-16T00:46:14;101096.00;;;14.60
15845;BMP180;50807;52.436;13.346;2024-02-16T00:46:45;101101.00;;;14.70
15845;BMP180;50807;52.436;13.346;2024-02-16T00:47:17;101095.00;;;14.60
15845;BMP180;50807;52.436;13.346;2024-02-16T00:47:48;101099.00;;;14.70
15845;BMP180;50807;52.436;13.346;2024-02-16T00:48:19;101095.00;;;14.60
15845;BMP180;50807;52.436;13.346;2024-02-16T00:48:51;101105.00;;;14.60
15845;BMP180;50807;52.436;13.346;2024-02-16T00:49:23;101103.00;;;14.60
15845;BMP180;50807;52.436;13.346;2024-02-16T00:49:55;101101.00;;;14.60
15845;BMP180;50807;52.436;13.346;2024-02-16T00:50:27;101110.00;;;14.60
15845;BMP180;50807;52.436;13.346;2024-02-16T00:50:58;101108.00;;;14.60
15845;BMP180;50807;52.436;13.346;2024-02-16T00:51:30;101110.00;;;14.60
15845;BMP180;50807;52.436;13.346;2024-02-16T00:52:00;101101.00;;;14.60
15845;BMP180;50807;52.436;13.346;2024-02-16T00:52:32;101104.00;;;14.60
15845;BMP180;50807;52.436;13.346;2024-02-16T00:53:03;101109.00;;;14.60
15845;BMP180;50807;52.436;13.346;2024-02-16T00:53:35;101112.00;;;14.60
15845;BMP180;50807;52.436;13.346;2024-02-16T00:54:06;101105.00;;;14.60
15845;BMP180;50807;52.436;13.346;2024-02-16T00:54:37;101104.00;;;14.60
15845;BMP180;50807;52.436;13.346;2024-02-16T00:55:08;101102.00;;;14.70
15845;BMP180;50807;52.436;13.346;2024-02-16T00:55:40;101096.00;;;14.70
15845;BMP180;50807;52.436;13.346;2024-02-16T00:56:12;101101.00;;;14.60
15845;BMP180;50807;52.436;13.346;2024-02-16T00:56:43;101100.00;;;14.60
15845;BMP180;50807;52.436;13.346;2024-02-16T00:57:14;101095.00;;;14.60
15845;BMP180;50807;52.436;13.346;2024-02-16T00:57:45;101092.00;;;14.60
15845;BMP180;50807;52.436;13.346;2024-02-16T00:58:16;101085.00;;;14.60
15845;BMP180;50807;52.436;13.346;2024-02-16T00:58:47;101102.00;;;14.60
15845;BMP180;50807;52.436;13.346;2024-02-16T00:59:18;101095.00;;;14.60
15845;BMP180;50807;52.436;13.346;2024-02-16T00:59:49;101096.00;;;14.70
15845;BMP180;50807;52.436;13.346;2024-02-16T01:00:20;101096.00;;;14.60
15845;BMP180;50807;52.436;13.346;2024-02-16T01:00:54;101092.00;;;14.60
15845;BMP180;50807;52.436;13.346;2024-02-16T01:01:25;101100.00;;;14.60
15845;BMP180;50807;52.436;13.346;2024-02-16T01:01:57;101096.00;;;14.60
15845;BMP180;50807;52.436;13.346;2024-02-16T01:02:28;101086.00;;;14.60
15845;BMP180;50807;52.436;13.346;2024-02-16T01:02:59;101094.00;;;14.60
15845;BMP180;50807;52.436;13.346;2024-02-16T01:03:30;101090.00;;;14.60
15845;BMP180;50807;52.436;13.346;2024-02-16T01:04:02;101089.00;;;14.60
15845;BMP180;50807;52.436;13.346;2024-02-16T01:04:33;101090.00;;;14.60
15845;BMP180;50807;52.436;13.346;2024-02-16T01:05:06;101092.00;;;14.60
15845;BMP180;50807;52.436;13.346;2024-02-16T01:05:37;101089.00;;;14.60
15845;BMP180;50807;52.436;13.346;2024-02-16T01:06:09;101091.00;;;14.60
15845;BMP180;50807;52.436;13.346;2024-02-16T01:06:41;101085.00;;;14.60
15845;BMP180;50807;52.436;13.346;2024-02-16T01:07:11;101090.00;;;14.60
15845;BMP180;50807;52.436;13.346;2024-02-16T01:07:42;101086.00;;;14.60
15845;BMP180;50807;52.436;13.346;2024-02-16T01:08:14;101091.00;;;14.60
15845;BMP180;50807;52.436;13.346;2024-02-16T01:08:45;101089.00;;;14.60
15845;BMP180;50807;52.436;13.346;2024-02-16T01:09:17;101095.00;;;14.60
15845;BMP180;50807;52.436;13.346;2024-02-16T01:09:47;101086.00;;;14.60
15845;BMP180;50807;52.436;13.346;2024-02-16T01:10:19;101088.00;;;14.60
15845;BMP180;50807;52.436;13.346;2024-02-16T01:10:50;101091.00;;;14.60
15845;BMP180;50807;52.436;13.346;2024-02-16T01:11:20;101092.00;;;14.60
15845;BMP180;50807;52.436;13.346;2024-02-16T01:11:51;101088.00;;;14.60
15845;BMP180;50807;52.436;13.346;2024-02-16T01:12:23;101101.00;;;14.60
15845;BMP180;50807;52.436;13.346;2024-02-16T01:12:54;101091.00;;;14.60
15845;BMP180;50807;52.436;13.346;2024-02-16T01:13:26;101088.00;;;14.60
15845;BMP180;50807;52.436;13.346;2024-02-16T01:13:57;101083.00;;;14.60
15845;BMP180;50807;52.436;13.346;2024-02-16T01:14:28;101089.00;;;14.60
15845;BMP180;50807;52.436;13.346;2024-02-16T01:14:59;101086.00;;;14.60
15845;BMP180;50807;52.436;13.346;2024-02-16T01:15:30;101090.00;;;14.60
15845;BMP180;50807;52.436;13.346;2024-02-16T01:16:02;101082.00;;;14.60
15845;BMP180;50807;52.436;13.346;2024-02-16T01:16:34;101076.00;;;14.60
15845;BMP180;50807;52.436;13.346;2024-02-16T01:17:04;101069.00;;;14.50
15845;BMP180;50807;52.436;13.346;2024-02-16T01:17:35;101079.00;;;14.60
15845;BMP180;50807;52.436;13.346;2024-02-16T01:18:06;101079.00;;;14.60
15845;BMP180;50807;52.436;13.346;2024-02-16T01:18:38;101080.00;;;14.60
15845;BMP180;50807;52.436;13.346;2024-02-16T01:19:09;101085.00;;;14.50
15845;BMP180;50807;52.436;13.346;2024-02-16T01:19:40;101079.00;;;14.60
15845;BMP180;50807;52.436;13.346;2024-02-16T01:20:12;101082.00;;;14.50
15845;BMP180;50807;52.436;13.346;2024-02-16T01:20:44;101086.00;;;14.50
15845;BMP180;50807;52.436;13.346;2024-02-16T01:21:15;101079.00;;;14.50
15845;BMP180;50807;52.436;13.346;2024-02-16T01:21:45;101080.00;;;14.50
15845;BMP180;50807;52.436;13.346;2024-02-16T01:22:22;101084.00;;;14.50
15845;BMP180;50807;52.436;13.346;2024-02-16T01:22:54;101080.00;;;14.50
15845;BMP180;50807;52.436;13.346;2024-02-16T01:23:25;101075.00;;;14.50
15845;BMP180;50807;52.436;13.346;2024-02-16T01:23:55;101072.00;;;14.50
15845;BMP180;50807;52.436;13.346;2024-02-16T01:24:29;101080.00;;;14.50
15845;BMP180;50807;52.436;13.346;2024-02-16T01:25:01;101078.00;;;14.50
15845;BMP180;50807;52.436;13.346;2024-02-16T01:25:32;101084.00;;;14.50
15845;BMP180;50807;52.436;13.346;2024-02-16T01:26:03;101072.00;;;14.50
15845;BMP180;50807;52.436;13.346;2024-02-16T01:26:34;101069.00;;;14.50
15845;BMP180;50807;52.436;13.346;2024-02-16T01:27:06;101073.00;;;14.50
15845;BMP180;50807;52.436;13.346;2024-02-16T01:27:36;101075.00;;;14.50
15845;BMP180;50807;52.436;13.346;2024-02-16T01:28:07;101073.00;;;14.50
15845;BMP180;50807;52.436;13.346;2024-02-16T01:28:38;101078.00;;;14.50
15845;BMP180;50807;52.436;13.346;2024-02-16T01:29:09;101078.00;;;14.50
15845;BMP180;50807;52.436;13.346;2024-02-16T01:29:40;101073.00;;;14.50
15845;BMP180;50807;52.436;13.346;2024-02-16T01:30:12;101068.00;;;14.50
15845;BMP180;50807;52.436;13.346;2024-02-16T01:30:44;101071.00;;;14.50
15845;BMP180;50807;52.436;13.346;2024-02-16T01:31:15;101073.00;;;14.50
15845;BMP180;50807;52.436;13.346;2024-02-16T01:31:46;101071.00;;;14.50
15845;BMP180;50807;52.436;13.346;2024-02-16T01:32:17;101073.00;;;14.50
15845;BMP180;50807;52.436;13.346;2024-02-16T01:32:49;101079.00;;;14.50
15845;BMP180;50807;52.436;13.346;2024-02-16T01:33:20;101075.00;;;14.50
15845;BMP180;50807;52.436;13.346;2024-02-16T01:33:51;101075.00;;;14.50
15845;BMP180;50807;52.436;13.346;2024-02-16T01:34:22;101074.00;;;14.50
15845;BMP180;50807;52.436;13.346;2024-02-16T01:34:54;101069.00;;;14.40
15845;BMP180;50807;52.436;13.346;2024-02-16T01:35:26;101080.00;;;14.50
15845;BMP180;50807;52.436;13.346;2024-02-16T01:35:57;101074.00;;;14.50
15845;BMP180;50807;52.436;13.346;2024-02-16T01:36:28;101077.00;;;14.50
15845;BMP180;50807;52.436;13.346;2024-02-16T01:37:00;101075.00;;;14.40
15845;BMP180;50807;52.436;13.346;2024-02-16T01:37:31;101075.00;;;14.50
15845;BMP180;50807;52.436;13.346;2024-02-16T01:38:02;101069.00;;;14.40
15845;BMP180;50807;52.436;13.346;2024-02-16T01:38:33;101075.00;;;14.50
15845;BMP180;50807;52.436;13.346;2024-02-16T01:39:05;101075.00;;;14.50
15845;BMP180;50807;52.436;13.346;2024-02-16T01:39:37;101074.00;;;14.50
15845;BMP180;50807;52.436;13.346;2024-02-16T01:40:09;101077.00;;;14.50
15845;BMP180;50807;52.436;13.346;2024-02-16T01:40:44;101068.00;;;14.50
15845;BMP180;50807;52.436;13.346;2024-02-16T01:41:16;101069.00;;;14.50
15845;BMP180;50807;52.436;13.346;2024-02-16T01:41:46;101076.00;;;14.50
15845;BMP180;50807;52.436;13.346;2024-02-16T01:42:17;101079.00;;;14.50
15845;BMP180;50807;52.436;13.346;2024-02-16T01:42:48;101079.00;;;14.50
15845;BMP180;50807;52.436;13.346;2024-02-16T01:43:19;101078.00;;;14.50
15845;BMP180;50807;52.436;13.346;2024-02-16T01:43:52;101070.00;;;14.50
15845;BMP180;50807;52.436;13.346;2024-02-16T01:44:23;101076.00;;;14.50
15845;BMP180;50807;52.436;13.346;2024-02-16T01:44:54;101071.00;;;14.50
15845;BMP180;50807;52.436;13.346;2024-02-16T01:45:25;101069.00;;;14.40
15845;BMP180;50807;52.436;13.346;2024-02-16T01:45:56;101072.00;;;14.40
15845;BMP180;50807;52.436;13.346;2024-02-16T01:46:29;101073.00;;;14.40
15845;BMP180;50807;52.436;13.346;2024-02-16T01:47:00;101068.00;;;14.40
15845;BMP180;50807;52.436;13.346;2024-02-16T01:47:32;101071.00;;;14.40
15845;BMP180;50807;52.436;13.346;2024-02-16T01:48:04;101073.00;;;14.40
15845;BMP180;50807;52.436;13.346;2024-02-16T01:48:36;101077.00;;;14.40
15845;BMP180;50807;52.436;13.346;2024-02-16T01:49:10;101060.00;;;14.40
15845;BMP180;50807;52.436;13.346;2024-02-16T01:49:41;101071.00;;;14.40
15845;BMP180;50807;52.436;13.346;2024-02-16T01:50:15;101066.00;;;14.40
15845;BMP180;50807;52.436;13.346;2024-02-16T01:50:49;101063.00;;;14.40
15845;BMP180;50807;52.436;13.346;2024-02-16T01:51:22;101064.00;;;14.40
15845;BMP180;50807;52.436;13.346;2024-02-16T01:51:53;101064.00;;;14.40
15845;BMP180;50807;52.436;13.346;2024-02-16T01:52:25;101056.00;;;14.40
15845;BMP180;50807;52.436;13.346;2024-02-16T01:52:56;101066.00;;;14.40
15845;BMP180;50807;52.436;13.346;2024-02-16T01:53:27;101061.00;;;14.40
15845;BMP180;50807;52.436;13.346;2024-02-16T01:54:00;101062.00;;;14.40
15845;BMP180;50807;52.436;13.346;2024-02-16T01:54:31;101057.00;;;14.40
15845;BMP180;50807;52.436;13.346;2024-02-16T01:55:03;101051.00;;;14.40
15845;BMP180;50807;52.436;13.346;2024-02-16T01:55:34;101046.00;;;14.40
15845;BMP180;50807;52.436;13.346;2024-02-16T01:56:07;101046.00;;;14.40
15845;BMP180;50807;52.436;13.346;2024-02-16T01:56:38;101044.00;;;14.40
15845;BMP180;50807;52.436;13.346;2024-02-16T01:57:09;101050.00;;;14.30
15845;BMP180;50807;52.436;13.346;2024-02-16T01:57:46;101043.00;;;14.30
15845;BMP180;50807;52.436;13.346;2024-02-16T01:58:17;101043.00;;;14.30
15845;BMP180;50807;52.436;13.346;2024-02-16T01:58:48;101050.00;;;14.30
15845;BMP180;50807;52.436;13.346;2024-02-16T01:59:19;101051.00;;;14.30
15845;BMP180;50807;52.436;13.346;2024-02-16T01:59:50;101044.00;;;14.30
15845;BMP180;50807;52.436;13.346;2024-02-16T02:00:22;101052.00;;;14.30
15845;BMP180;50807;52.436;13.346;2024-02-16T02:00:52;101047.00;;;14.30
15845;BMP180;50807;52.436;13.346;2024-02-16T02:01:23;101048.00;;;14.30
15845;BMP180;50807;52.436;13.346;2024-02-16T02:01:54;101047.00;;;14.30
15845;BMP180;50807;52.436;13.346;2024-02-16T02:02:27;101050.00;;;14.30
15845;BMP180;50807;52.436;13.346;2024-02-16T02:02:58;101040.00;;;14.30
15845;BMP180;50807;52.436;13.346;2024-02-16T02:03:29;101042.00;;;14.30
15845;BMP180;50807;52.436;13.346;2024-02-16T02:04:00;101044.00;;;14.30
15845;BMP180;50807;52.436;13.346;2024-02-16T02:04:32;101039.00;;;14.30
15845;BMP180;50807;52.436;13.346;2024-02-16T02:05:04;101045.00;;;14.30
15845;BMP180;50807;52.436;13.346;2024-02-16T02:05:44;101043.00;;;14.20
15845;BMP180;50807;52.436;13.346;2024-02-16T02:06:16;101034.00;;;14.20
15845;BMP180;50807;52.436;13.346;2024-02-16T02:06:48;101041.00;;;14.20
15845;BMP180;50807;52.436;13.346;2024-02-16T02:07:24;101037.00;;;14.20
15845;BMP180;50807;52.436;13.346;2024-02-16T02:07:56;101035.00;;;14.20
15845;BMP180;50807;52.436;13.346;2024-02-16T02:08:27;101039.00;;;14.20
15845;BMP180;50807;52.436;13.346;2024-02-16T02:08:58;101040.00;;;14.20
15845;BMP180;50807;52.436;13.346;2024-02-16T02:09:29;101046.00;;;14.20
15845;BMP180;50807;52.436;13.346;2024-02-16T02:10:01;101040.00;;;14.20
15845;BMP180;50807;52.436;13.346;2024-02-16T02:10:31;101031.00;;;14.20
15845;BMP180;50807;52.436;13.346;2024-02-16T02:11:03;101030.00;;;14.20
15845;BMP180;50807;52.436;13.346;2024-02-16T02:11:36;101033.00;;;14.20
15845;BMP180;50807;52.436;13.346;2024-02-16T02:12:08;101028.00;;;14.20
15845;BMP180;50807;52.436;13.346;2024-02-16T02:12:40;101033.00;;;14.20
15845;BMP180;50807;52.436;13.346;2024-02-16T02:13:10;101032.00;;;14.20
15845;BMP180;50807;52.436;13.346;2024-02-16T02:13:42;101031.00;;;14.20
15845;BMP180;50807;52.436;13.346;2024-02-16T02:14:13;101034.00;;;14.20
15845;BMP180;50807;52.436;13.346;2024-02-16T02:14:44;101031.00;;;14.20
15845;BMP180;50807;52.436;13.346;2024-02-16T02:15:14;101035.00;;;14.20
15845;BMP180;50807;52.436;13.346;2024-02-16T02:15:45;101038.00;;;14.20
15845;BMP180;50807;52.436;13.346;2024-02-16T02:16:19;101028.00;;;14.20
15845;BMP180;50807;52.436;13.346;2024-02-16T02:16:51;101029.00;;;14.20
15845;BMP180;50807;52.436;13.346;2024-02-16T02:17:22;101036.00;;;14.20
15845;BMP180;50807;52.436;13.346;2024-02-16T02:17:52;101020.00;;;14.20
15845;BMP180;50807;52.436;13.346;2024-02-16T02:18:24;101028.00;;;14.20
15845;BMP180;50807;52.436;13.346;2024-02-16T02:18:55;101023.00;;;14.20
15845;BMP180;50807;52.436;13.346;2024-02-16T02:19:26;101020.00;;;14.20
15845;BMP180;50807;52.436;13.346;2024-02-16T02:19:57;101018.00;;;14.20
15845;BMP180;50807;52.436;13.346;2024-02-16T02:20:28;101028.00;;;14.20
15845;BMP180;50807;52.436;13.346;2024-02-16T02:20:59;101015.00;;;14.20
15845;BMP180;50807;52.436;13.346;2024-02-16T02:21:31;101021.00;;;14.20
15845;BMP180;50807;52.436;13.346;2024-02-16T02:22:03;101024.00;;;14.20
15845;BMP180;50807;52.436;13.346;2024-02-16T02:22:35;101011.00;;;14.20
15845;BMP180;50807;52.436;13.346;2024-02-16T02:23:06;101013.00;;;14.20
15845;BMP180;50807;52.436;13.346;2024-02-16T02:23:37;101022.00;;;14.20
15845;BMP180;50807;52.436;13.346;2024-02-16T02:24:08;101016.00;;;14.20
15845;BMP180;50807;52.436;13.346;2024-02-16T02:24:39;101012.00;;;14.20
15845;BMP180;50807;52.436;13.346;2024-02-16T02:25:10;101020.00;;;14.20
15845;BMP180;50807;52.436;13.346;2024-02-16T02:25:41;101013.00;;;14.20
15845;BMP180;50807;52.436;13.346;2024-02-16T02:26:14;101009.00;;;14.10
15845;BMP180;50807;52.436;13.346;2024-02-16T02:26:45;101013.00;;;14.10
15845;BMP180;50807;52.436;13.346;2024-02-16T02:27:16;101014.00;;;14.10
15845;BMP180;50807;52.436;13.346;2024-02-16T02:27:47;101011.00;;;14.10
15845;BMP180;50807;52.436;13.346;2024-02-16T02:28:18;101015.00;;;14.20
15845;BMP180;50807;52.436;13.346;2024-02-16T02:28:49;101017.00;;;14.20
15845;BMP180;50807;52.436;13.346;2024-02-16T02:29:20;101012.00;;;14.10
15845;BMP180;50807;52.436;13.346;2024-02-16T02:29:51;101017.00;;;14.10
15845;BMP180;50807;52.436;13.346;2024-02-16T02:30:22;101020.00;;;14.10
15845;BMP180;50807;52.436;13.346;2024-02-16T02:30:53;101014.00;;;14.10
15845;BMP180;50807;52.436;13.346;2024-02-16T02:31:25;101015.00;;;14.10
15845;BMP180;50807;52.436;13.346;2024-02-16T02:31:56;101014.00;;;14.10
15845;BMP180;50807;52.436;13.346;2024-02-16T02:32:27;101005.00;;;14.10
15845;BMP180;50807;52.436;13.346;2024-02-16T02:32:59;101015.00;;;14.10
15845;BMP180;50807;52.436;13.346;2024-02-16T02:33:30;101016.00;;;14.10
15845;BMP180;50807;52.436;13.346;2024-02-16T02:34:01;101009.00;;;14.10
15845;BMP180;50807;52.436;13.346;2024-02-16T02:34:32;101007.00;;;14.10
15845;BMP180;50807;52.436;13.346;2024-02-16T02:35:05;101006.00;;;14.10
15845;BMP180;50807;52.436;13.346;2024-02-16T02:35:36;101007.00;;;14.10
15845;BMP180;50807;52.436;13.346;2024-02-16T02:36:07;101016.00;;;14.10
15845;BMP180;50807;52.436;13.346;2024-02-16T02:36:39;101006.00;;;14.10
15845;BMP180;50807;52.436;13.346;2024-02-16T02:37:10;101011.00;;;14.10
15845;BMP180;50807;52.436;13.346;2024-02-16T02:37:43;101003.00;;;14.10
15845;BMP180;50807;52.436;13.346;2024-02-16T02:38:14;101008.00;;;14.10
15845;BMP180;50807;52.436;13.346;2024-02-16T02:38:45;100999.00;;;14.10
15845;BMP180;50807;52.436;13.346;2024-02-16T02:39:16;100997.00;;;14.10
15845;BMP180;50807;52.436;13.346;2024-02-16T02:39:47;100998.00;;;14.10
15845;BMP180;50807;52.436;13.346;2024-02-16T02:40:18;100994.00;;;14.00
15845;BMP180;50807;52.436;13.346;2024-02-16T02:40:50;100989.00;;;14.00
15845;BMP180;50807;52.436;13.346;2024-02-16T02:41:20;101000.00;;;14.00
15845;BMP180;50807;52.436;13.346;2024-02-16T02:41:51;101000.00;;;14.00
15845;BMP180;50807;52.436;13.346;2024-02-16T02:42:22;100994.00;;;14.00
15845;BMP180;50807;52.436;13.346;2024-02-16T02:42:54;100988.00;;;14.00
15845;BMP180;50807;52.436;13.346;2024-02-16T02:43:24;100996.00;;;14.00
15845;BMP180;50807;52.436;13.346;2024-02-16T02:43:55;100996.00;;;14.00
15845;BMP180;50807;52.436;13.346;2024-02-16T02:44:26;100991.00;;;14.00
15845;BMP180;50807;52.436;13.346;2024-02-16T02:44:58;100995.00;;;14.00
15845;BMP180;50807;52.436;13.346;2024-02-16T02:45:29;100993.00;;;14.00
15845;BMP180;50807;52.436;13.346;2024-02-16T02:45:59;100995.00;;;14.00
15845;BMP180;50807;52.436;13.346;2024-02-16T02:46:30;100993.00;;;14.00
15845;BMP180;50807;52.436;13.346;2024-02-16T02:47:02;100990.00;;;14.00
15845;BMP180;50807;52.436;13.346;2024-02-16T02:47:33;100994.00;;;14.00
15845;BMP180;50807;52.436;13.346;2024-02-16T02:48:04;100992.00;;;14.00
15845;BMP180;50807;52.436;13.346;2024-02-16T02:48:35;100987.00;;;14.00
15845;BMP180;50807;52.436;13.346;2024-02-16T02:49:07;100988.00;;;14.00
15845;BMP180;50807;52.436;13.346;2024-02-16T02:49:38;100991.00;;;14.00
15845;BMP180;50807;52.436;13.346;2024-02-16T02:50:09;100985.00;;;14.00
15845;BMP180;50807;52.436;13.346;2024-02-16T02:50:41;100986.00;;;14.00
15845;BMP180;50807;52.436;13.346;2024-02-16T02:51:12;100993.00;;;14.00
15845;BMP180;50807;52.436;13.346;2024-02-16T02:51:43;100987.00;;;14.00
15845;BMP180;50807;52.436;13.346;2024-02-16T02:52:13;100989.00;;;14.00
15845;BMP180;50807;52.436;13.346;2024-02-16T02:52:46;100992.00;;;14.00
15845;BMP180;50807;52.436;13.346;2024-02-16T02:53:17;100989.00;;;14.00
15845;BMP180;50807;52.436;13.346;2024-02-16T02:53:48;100987.00;;;14.00
15845;BMP180;50807;52.436;13.346;2024-02-16T02:54:19;100984.00;;;14.00
15845;BMP180;50807;52.436;13.346;2024-02-16T02:54:51;100984.00;;;14.00
15845;BMP180;50807;52.436;13.346;2024-02-16T02:55:22;100982.00;;;14.00
15845;BMP180;50807;52.436;13.346;2024-02-16T02:55:53;100985.00;;;14.00